sensor_id;sensor_type;location;lat;lon;timestamp;temperature;humidity
46139;DHT22;32398;49.112;8.598;2022-10-16T00:01:22;16.50;99.90
46139;DHT22;32398;49.112;8.598;2022-10-16T00:03:50;16.40;99.90
46139;DHT22;32398;49.112;8.598;2022-10-16T00:06:17;16.40;99.90
46139;DHT22;32398;49.112;8.598;2022-10-16T00:08:46;16.50;99.90
46139;DHT22;32398;49.112;8.598;2022-10-16T00:11:13;16.40;99.90
46139;DHT22;32398;49.112;8.598;2022-10-16T00:13:41;16.50;99.90
46139;DHT22;32398;49.112;8.598;2022-10-16T00:16:12;16.50;99.90
46139;DHT22;32398;49.112;8.598;2022-10-16T00:18:46;16.40;99.90
46139;DHT22;32398;49.112;8.598;2022-10-16T00:21:14;16.40;99.90
46139;DHT22;32398;49.112;8.598;2022-10-16T00:23:41;16.40;99.90
46139;DHT22;32398;49.112;8.598;2022-10-16T00:26:10;16.40;99.90
46139;DHT22;32398;49.112;8.598;2022-10-16T00:28:37;16.40;99.90
46139;DHT22;32398;49.112;8.598;2022-10-16T00:31:04;16.40;99.90
46139;DHT22;32398;49.112;8.598;2022-10-16T00:33:31;16.40;99.90
46139;DHT22;32398;49.112;8.598;2022-10-16T00:35:58;16.40;99.90
46139;DHT22;32398;49.112;8.598;2022-10-16T00:38:24;16.40;99.90
46139;DHT22;32398;49.112;8.598;2022-10-16T00:40:51;16.50;99.90
46139;DHT22;32398;49.112;8.598;2022-10-16T00:43:33;16.50;99.90
46139;DHT22;32398;49.112;8.598;2022-10-16T00:46:00;16.50;99.90
46139;DHT22;32398;49.112;8.598;2022-10-16T00:48:27;16.50;99.90
46139;DHT22;32398;49.112;8.598;2022-10-16T00:50:54;16.40;99.90
46139;DHT22;32398;49.112;8.598;2022-10-16T00:53:22;16.40;99.90
46139;DHT22;32398;49.112;8.598;2022-10-16T00:55:49;16.40;99.90
46139;DHT22;32398;49.112;8.598;2022-10-16T00:58:16;16.50;99.90
46139;DHT22;32398;49.112;8.598;2022-10-16T01:00:45;16.40;99.90
46139;DHT22;32398;49.112;8.598;2022-10-16T01:03:22;16.40;99.90
46139;DHT22;32398;49.112;8.598;2022-10-16T01:05:50;16.40;99.90
46139;DHT22;32398;49.112;8.598;2022-10-16T01:08:21;16.40;99.90
46139;DHT22;32398;49.112;8.598;2022-10-16T01:10:51;16.40;99.90
46139;DHT22;32398;49.112;8.598;2022-10-16T01:13:23;16.40;99.90
46139;DHT22;32398;49.112;8.598;2022-10-16T01:15:53;16.40;99.90
46139;DHT22;32398;49.112;8.598;2022-10-16T01:18:23;16.40;99.90
46139;DHT22;32398;49.112;8.598;2022-10-16T01:20:54;16.40;99.90
46139;DHT22;32398;49.112;8.598;2022-10-16T01:23:27;16.40;99.90
46139;DHT22;32398;49.112;8.598;2022-10-16T01:26:04;16.40;99.90
46139;DHT22;32398;49.112;8.598;2022-10-16T01:28:38;16.40;99.90
46139;DHT22;32398;49.112;8.598;2022-10-16T01:31:06;16.40;99.90
46139;DHT22;32398;49.112;8.598;2022-10-16T01:33:34;16.40;99.90
46139;DHT22;32398;49.112;8.598;2022-10-16T01:36:03;16.40;99.90
46139;DHT22;32398;49.112;8.598;2022-10-16T01:38:33;16.40;99.90
46139;DHT22;32398;49.112;8.598;2022-10-16T01:41:03;16.40;99.90
46139;DHT22;32398;49.112;8.598;2022-10-16T01:43:33;16.40;99.90
46139;DHT22;32398;49.112;8.598;2022-10-16T01:46:03;16.30;99.90
46139;DHT22;32398;49.112;8.598;2022-10-16T01:48:30;16.40;99.90
46139;DHT22;32398;49.112;8.598;2022-10-16T01:51:01;16.30;99.90
46139;DHT22;32398;49.112;8.598;2022-10-16T01:53:28;16.30;99.90
46139;DHT22;32398;49.112;8.598;2022-10-16T01:55:55;16.30;99.90
46139;DHT22;32398;49.112;8.598;2022-10-16T01:58:24;16.30;99.90
46139;DHT22;32398;49.112;8.598;2022-10-16T02:00:51;16.30;99.90
46139;DHT22;32398;49.112;8.598;2022-10-16T02:03:20;16.30;99.90
46139;DHT22;32398;49.112;8.598;2022-10-16T02:05:49;16.30;99.90
46139;DHT22;32398;49.112;8.598;2022-10-16T02:08:16;16.40;99.90
46139;DHT22;32398;49.112;8.598;2022-10-16T02:10:43;16.30;99.90
46139;DHT22;32398;49.112;8.598;2022-10-16T02:13:10;16.30;99.90
46139;DHT22;32398;49.112;8.598;2022-10-16T02:15:40;16.30;99.90
46139;DHT22;32398;49.112;8.598;2022-10-16T02:18:07;16.30;99.90
46139;DHT22;32398;49.112;8.598;2022-10-16T02:20:38;16.30;99.90
46139;DHT22;32398;49.112;8.598;2022-10-16T02:23:06;16.30;99.90
46139;DHT22;32398;49.112;8.598;2022-10-16T02:25:37;16.30;99.90
46139;DHT22;32398;49.112;8.598;2022-10-16T02:28:06;16.30;99.90
46139;DHT22;32398;49.112;8.598;2022-10-16T02:30:36;16.30;99.90
46139;DHT22;32398;49.112;8.598;2022-10-16T02:33:07;16.30;99.90
46139;DHT22;32398;49.112;8.598;2022-10-16T02:35:34;16.30;99.90
46139;DHT22;32398;49.112;8.598;2022-10-16T02:38:03;16.30;99.90
46139;DHT22;32398;49.112;8.598;2022-10-16T02:40:30;16.30;99.90
46139;DHT22;32398;49.112;8.598;2022-10-16T02:42:57;16.30;99.90
46139;DHT22;32398;49.112;8.598;2022-10-16T02:45:24;16.30;99.90
46139;DHT22;32398;49.112;8.598;2022-10-16T02:47:51;16.30;99.90
46139;DHT22;32398;49.112;8.598;2022-10-16T02:50:17;16.30;99.90
46139;DHT22;32398;49.112;8.598;2022-10-16T02:52:44;16.20;99.90
46139;DHT22;32398;49.112;8.598;2022-10-16T02:55:12;16.20;99.90
46139;DHT22;32398;49.112;8.598;2022-10-16T02:57:38;16.30;99.90
46139;DHT22;32398;49.112;8.598;2022-10-16T03:00:05;16.20;99.90
46139;DHT22;32398;49.112;8.598;2022-10-16T03:02:32;16.20;99.90
46139;DHT22;32398;49.112;8.598;2022-10-16T03:04:59;16.20;99.90
46139;DHT22;32398;49.112;8.598;2022-10-16T03:07:25;16.20;99.90
46139;DHT22;32398;49.112;8.598;2022-10-16T03:09:52;16.20;99.90
46139;DHT22;32398;49.112;8.598;2022-10-16T03:12:21;16.20;99.90
46139;DHT22;32398;49.112;8.598;2022-10-16T03:14:47;16.20;99.90
46139;DHT22;32398;49.112;8.598;2022-10-16T03:17:14;16.20;99.90
46139;DHT22;32398;49.112;8.598;2022-10-16T03:19:42;16.20;99.90
46139;DHT22;32398;49.112;8.598;2022-10-16T03:22:08;16.10;99.90
46139;DHT22;32398;49.112;8.598;2022-10-16T03:24:35;16.20;99.90
46139;DHT22;32398;49.112;8.598;2022-10-16T03:27:01;16.20;99.90
46139;DHT22;32398;49.112;8.598;2022-10-16T03:29:29;16.20;99.90
46139;DHT22;32398;49.112;8.598;2022-10-16T03:31:57;16.10;99.90
46139;DHT22;32398;49.112;8.598;2022-10-16T03:34:24;16.20;99.90
46139;DHT22;32398;49.112;8.598;2022-10-16T03:36:50;16.20;99.90
46139;DHT22;32398;49.112;8.598;2022-10-16T03:39:17;16.20;99.90
46139;DHT22;32398;49.112;8.598;2022-10-16T03:41:44;16.10;99.90
46139;DHT22;32398;49.112;8.598;2022-10-16T03:44:11;16.20;99.90
46139;DHT22;32398;49.112;8.598;2022-10-16T03:46:40;16.10;99.90
46139;DHT22;32398;49.112;8.598;2022-10-16T03:49:07;16.10;99.90
46139;DHT22;32398;49.112;8.598;2022-10-16T03:51:33;16.10;99.90
46139;DHT22;32398;49.112;8.598;2022-10-16T03:54:00;16.10;99.90
46139;DHT22;32398;49.112;8.598;2022-10-16T03:56:27;16.10;99.90
46139;DHT22;32398;49.112;8.598;2022-10-16T03:58:53;16.10;99.90
46139;DHT22;32398;49.112;8.598;2022-10-16T04:01:20;16.10;99.90
46139;DHT22;32398;49.112;8.598;2022-10-16T04:03:48;16.10;99.90
46139;DHT22;32398;49.112;8.598;2022-10-16T04:06:14;16.10;99.90
46139;DHT22;32398;49.112;8.598;2022-10-16T04:08:42;16.10;99.90
46139;DHT22;32398;49.112;8.598;2022-10-16T04:11:11;16.10;99.90
46139;DHT22;32398;49.112;8.598;2022-10-16T04:13:37;16.10;99.90
46139;DHT22;32398;49.112;8.598;2022-10-16T04:16:04;16.10;99.90
46139;DHT22;32398;49.112;8.598;2022-10-16T04:18:31;16.10;99.90
46139;DHT22;32398;49.112;8.598;2022-10-16T04:21:02;16.10;99.90
46139;DHT22;32398;49.112;8.598;2022-10-16T04:23:29;16.10;99.90
46139;DHT22;32398;49.112;8.598;2022-10-16T04:25:56;16.00;99.90
46139;DHT22;32398;49.112;8.598;2022-10-16T04:28:22;16.00;99.90
46139;DHT22;32398;49.112;8.598;2022-10-16T04:30:52;16.10;99.90
46139;DHT22;32398;49.112;8.598;2022-10-16T04:33:19;16.00;99.90
46139;DHT22;32398;49.112;8.598;2022-10-16T04:35:45;16.00;99.90
46139;DHT22;32398;49.112;8.598;2022-10-16T04:38:15;16.00;99.90
46139;DHT22;32398;49.112;8.598;2022-10-16T04:40:41;16.10;99.90
46139;DHT22;32398;49.112;8.598;2022-10-16T04:43:08;16.00;99.90
46139;DHT22;32398;49.112;8.598;2022-10-16T04:45:35;16.10;99.90
46139;DHT22;32398;49.112;8.598;2022-10-16T04:48:02;16.00;99.90
46139;DHT22;32398;49.112;8.598;2022-10-16T04:50:29;16.00;99.90
46139;DHT22;32398;49.112;8.598;2022-10-16T04:52:56;16.00;99.90
46139;DHT22;32398;49.112;8.598;2022-10-16T04:55:24;16.00;99.90
46139;DHT22;32398;49.112;8.598;2022-10-16T04:57:50;16.00;99.90
46139;DHT22;32398;49.112;8.598;2022-10-16T05:00:17;16.00;99.90
46139;DHT22;32398;49.112;8.598;2022-10-16T05:02:43;16.00;99.90
46139;DHT22;32398;49.112;8.598;2022-10-16T05:05:10;16.00;99.90
46139;DHT22;32398;49.112;8.598;2022-10-16T05:07:37;16.00;99.90
46139;DHT22;32398;49.112;8.598;2022-10-16T05:10:04;16.00;99.90
46139;DHT22;32398;49.112;8.598;2022-10-16T05:12:34;16.00;99.90
46139;DHT22;32398;49.112;8.598;2022-10-16T05:15:01;16.00;99.90
46139;DHT22;32398;49.112;8.598;2022-10-16T05:17:30;15.90;99.90
46139;DHT22;32398;49.112;8.598;2022-10-16T05:19:59;16.00;99.90
46139;DHT22;32398;49.112;8.598;2022-10-16T05:22:25;16.00;99.90
46139;DHT22;32398;49.112;8.598;2022-10-16T05:24:52;16.00;99.90
46139;DHT22;32398;49.112;8.598;2022-10-16T05:27:19;16.00;99.90
46139;DHT22;32398;49.112;8.598;2022-10-16T05:29:47;15.90;99.90
46139;DHT22;32398;49.112;8.598;2022-10-16T05:32:14;15.90;99.90
46139;DHT22;32398;49.112;8.598;2022-10-16T05:34:40;15.90;99.90
46139;DHT22;32398;49.112;8.598;2022-10-16T05:37:07;15.90;99.90
46139;DHT22;32398;49.112;8.598;2022-10-16T05:39:34;15.90;99.90
46139;DHT22;32398;49.112;8.598;2022-10-16T05:42:02;15.90;99.90
46139;DHT22;32398;49.112;8.598;2022-10-16T05:44:28;15.90;99.90
46139;DHT22;32398;49.112;8.598;2022-10-16T05:46:56;15.90;99.90
46139;DHT22;32398;49.112;8.598;2022-10-16T05:49:23;15.90;99.90
46139;DHT22;32398;49.112;8.598;2022-10-16T05:51:50;15.90;99.90
46139;DHT22;32398;49.112;8.598;2022-10-16T05:54:16;15.90;99.90
46139;DHT22;32398;49.112;8.598;2022-10-16T05:56:43;15.90;99.90
46139;DHT22;32398;49.112;8.598;2022-10-16T05:59:09;15.90;99.90
46139;DHT22;32398;49.112;8.598;2022-10-16T06:01:36;15.90;99.90
46139;DHT22;32398;49.112;8.598;2022-10-16T06:04:04;15.90;99.90
46139;DHT22;32398;49.112;8.598;2022-10-16T06:06:30;15.90;99.90
46139;DHT22;32398;49.112;8.598;2022-10-16T06:08:57;15.80;99.90
46139;DHT22;32398;49.112;8.598;2022-10-16T06:11:25;15.90;99.90
46139;DHT22;32398;49.112;8.598;2022-10-16T06:13:53;15.90;99.90
46139;DHT22;32398;49.112;8.598;2022-10-16T06:16:19;15.90;99.90
46139;DHT22;32398;49.112;8.598;2022-10-16T06:18:46;15.90;99.90
46139;DHT22;32398;49.112;8.598;2022-10-16T06:21:16;15.80;99.90
46139;DHT22;32398;49.112;8.598;2022-10-16T06:23:43;15.90;99.90
46139;DHT22;32398;49.112;8.598;2022-10-16T06:26:11;15.80;99.90
46139;DHT22;32398;49.112;8.598;2022-10-16T06:28:38;15.90;99.90
46139;DHT22;32398;49.112;8.598;2022-10-16T06:31:06;15.90;99.90
46139;DHT22;32398;49.112;8.598;2022-10-16T06:33:33;15.90;99.90
46139;DHT22;32398;49.112;8.598;2022-10-16T06:36:00;15.80;99.90
46139;DHT22;32398;49.112;8.598;2022-10-16T06:38:28;15.80;99.90
46139;DHT22;32398;49.112;8.598;2022-10-16T06:40:54;15.80;99.90
46139;DHT22;32398;49.112;8.598;2022-10-16T06:43:21;15.80;99.90
46139;DHT22;32398;49.112;8.598;2022-10-16T06:45:50;15.80;99.90
46139;DHT22;32398;49.112;8.598;2022-10-16T06:48:16;15.80;99.90
46139;DHT22;32398;49.112;8.598;2022-10-16T06:50:43;15.80;99.90
46139;DHT22;32398;49.112;8.598;2022-10-16T06:53:09;15.80;99.90
46139;DHT22;32398;49.112;8.598;2022-10-16T06:55:37;15.80;99.90
46139;DHT22;32398;49.112;8.598;2022-10-16T06:58:04;15.80;99.90
46139;DHT22;32398;49.112;8.598;2022-10-16T07:00:30;15.70;99.90
46139;DHT22;32398;49.112;8.598;2022-10-16T07:02:57;15.80;99.90
46139;DHT22;32398;49.112;8.598;2022-10-16T07:05:23;15.80;99.90
46139;DHT22;32398;49.112;8.598;2022-10-16T07:07:50;15.80;99.90
46139;DHT22;32398;49.112;8.598;2022-10-16T07:10:17;15.80;99.90
46139;DHT22;32398;49.112;8.598;2022-10-16T07:12:44;15.80;99.90
46139;DHT22;32398;49.112;8.598;2022-10-16T07:15:11;15.80;99.90
46139;DHT22;32398;49.112;8.598;2022-10-16T07:17:38;15.80;99.90
46139;DHT22;32398;49.112;8.598;2022-10-16T07:20:05;15.80;99.90
46139;DHT22;32398;49.112;8.598;2022-10-16T07:22:31;15.80;99.90
46139;DHT22;32398;49.112;8.598;2022-10-16T07:24:58;15.80;99.90
46139;DHT22;32398;49.112;8.598;2022-10-16T07:27:24;15.80;99.90
46139;DHT22;32398;49.112;8.598;2022-10-16T07:29:53;15.90;99.90
46139;DHT22;32398;49.112;8.598;2022-10-16T07:32:19;15.80;99.90
46139;DHT22;32398;49.112;8.598;2022-10-16T07:34:46;15.80;99.90
46139;DHT22;32398;49.112;8.598;2022-10-16T07:37:12;15.80;99.90
46139;DHT22;32398;49.112;8.598;2022-10-16T07:39:39;15.80;99.90
46139;DHT22;32398;49.112;8.598;2022-10-16T07:42:05;15.90;99.90
46139;DHT22;32398;49.112;8.598;2022-10-16T07:44:33;15.80;99.90
46139;DHT22;32398;49.112;8.598;2022-10-16T07:47:01;15.90;99.90
46139;DHT22;32398;49.112;8.598;2022-10-16T07:49:28;15.80;99.90
46139;DHT22;32398;49.112;8.598;2022-10-16T07:51:54;15.80;99.90
46139;DHT22;32398;49.112;8.598;2022-10-16T07:54:21;15.90;99.90
46139;DHT22;32398;49.112;8.598;2022-10-16T07:56:47;15.90;99.90
46139;DHT22;32398;49.112;8.598;2022-10-16T07:59:14;15.90;99.90
46139;DHT22;32398;49.112;8.598;2022-10-16T08:01:40;15.90;99.90
46139;DHT22;32398;49.112;8.598;2022-10-16T08:04:09;15.90;99.90
46139;DHT22;32398;49.112;8.598;2022-10-16T08:06:37;15.90;99.90
46139;DHT22;32398;49.112;8.598;2022-10-16T08:09:04;15.90;99.90
46139;DHT22;32398;49.112;8.598;2022-10-16T08:11:30;15.90;99.90
46139;DHT22;32398;49.112;8.598;2022-10-16T08:13:57;15.90;99.90
46139;DHT22;32398;49.112;8.598;2022-10-16T08:16:24;15.90;99.90
46139;DHT22;32398;49.112;8.598;2022-10-16T08:18:50;15.90;99.90
46139;DHT22;32398;49.112;8.598;2022-10-16T08:21:19;15.90;99.90
46139;DHT22;32398;49.112;8.598;2022-10-16T08:23:46;15.90;99.90
46139;DHT22;32398;49.112;8.598;2022-10-16T08:26:12;16.00;99.90
46139;DHT22;32398;49.112;8.598;2022-10-16T08:28:39;16.00;99.90
46139;DHT22;32398;49.112;8.598;2022-10-16T08:31:06;15.90;99.90
46139;DHT22;32398;49.112;8.598;2022-10-16T08:33:33;16.00;99.90
46139;DHT22;32398;49.112;8.598;2022-10-16T08:36:01;16.00;99.90
46139;DHT22;32398;49.112;8.598;2022-10-16T08:38:29;16.00;99.90
46139;DHT22;32398;49.112;8.598;2022-10-16T08:40:56;16.00;99.90
46139;DHT22;32398;49.112;8.598;2022-10-16T08:43:39;16.00;99.90
46139;DHT22;32398;49.112;8.598;2022-10-16T08:46:19;16.00;99.90
46139;DHT22;32398;49.112;8.598;2022-10-16T08:48:49;16.00;99.90
46139;DHT22;32398;49.112;8.598;2022-10-16T08:51:18;16.10;99.90
46139;DHT22;32398;49.112;8.598;2022-10-16T08:53:49;16.00;99.90
46139;DHT22;32398;49.112;8.598;2022-10-16T08:56:17;16.10;99.90
46139;DHT22;32398;49.112;8.598;2022-10-16T08:58:43;16.10;99.90
46139;DHT22;32398;49.112;8.598;2022-10-16T09:01:11;16.10;99.90
46139;DHT22;32398;49.112;8.598;2022-10-16T09:03:42;16.10;99.90
46139;DHT22;32398;49.112;8.598;2022-10-16T09:06:21;16.10;99.90
46139;DHT22;32398;49.112;8.598;2022-10-16T09:08:58;16.10;99.90
46139;DHT22;32398;49.112;8.598;2022-10-16T09:11:30;16.20;99.90
46139;DHT22;32398;49.112;8.598;2022-10-16T09:14:02;16.20;99.90
46139;DHT22;32398;49.112;8.598;2022-10-16T09:16:33;16.20;99.90
46139;DHT22;32398;49.112;8.598;2022-10-16T09:19:02;16.20;99.90
46139;DHT22;32398;49.112;8.598;2022-10-16T09:21:31;16.20;99.90
46139;DHT22;32398;49.112;8.598;2022-10-16T09:24:04;16.20;99.90
46139;DHT22;32398;49.112;8.598;2022-10-16T09:26:34;16.20;99.90
46139;DHT22;32398;49.112;8.598;2022-10-16T09:29:01;16.20;99.90
46139;DHT22;32398;49.112;8.598;2022-10-16T09:31:28;16.30;99.90
46139;DHT22;32398;49.112;8.598;2022-10-16T09:33:59;16.30;99.90
46139;DHT22;32398;49.112;8.598;2022-10-16T09:36:29;16.30;99.90
46139;DHT22;32398;49.112;8.598;2022-10-16T09:39:04;16.30;99.90
46139;DHT22;32398;49.112;8.598;2022-10-16T09:41:33;16.30;99.90
46139;DHT22;32398;49.112;8.598;2022-10-16T09:44:01;16.30;99.90
46139;DHT22;32398;49.112;8.598;2022-10-16T09:46:28;16.30;99.90
46139;DHT22;32398;49.112;8.598;2022-10-16T09:48:56;16.40;99.90
46139;DHT22;32398;49.112;8.598;2022-10-16T09:51:24;16.40;99.90
46139;DHT22;32398;49.112;8.598;2022-10-16T09:53:54;16.40;99.90
46139;DHT22;32398;49.112;8.598;2022-10-16T09:56:23;16.50;99.90
46139;DHT22;32398;49.112;8.598;2022-10-16T09:58:50;16.50;99.90
46139;DHT22;32398;49.112;8.598;2022-10-16T10:01:17;16.50;99.90
46139;DHT22;32398;49.112;8.598;2022-10-16T10:03:45;16.60;99.90
46139;DHT22;32398;49.112;8.598;2022-10-16T10:06:17;16.60;99.90
46139;DHT22;32398;49.112;8.598;2022-10-16T10:08:53;16.70;99.80
46139;DHT22;32398;49.112;8.598;2022-10-16T10:14:06;16.80;99.70
46139;DHT22;32398;49.112;8.598;2022-10-16T10:16:35;16.80;99.60
46139;DHT22;32398;49.112;8.598;2022-10-16T10:19:02;16.90;99.50
46139;DHT22;32398;49.112;8.598;2022-10-16T10:21:28;16.90;99.40
46139;DHT22;32398;49.112;8.598;2022-10-16T10:23:55;17.00;99.30
46139;DHT22;32398;49.112;8.598;2022-10-16T10:26:23;17.00;99.30
46139;DHT22;32398;49.112;8.598;2022-10-16T10:28:53;17.00;99.10
46139;DHT22;32398;49.112;8.598;2022-10-16T10:31:25;17.10;99.10
46139;DHT22;32398;49.112;8.598;2022-10-16T10:33:54;17.10;99.00
46139;DHT22;32398;49.112;8.598;2022-10-16T10:36:28;17.30;99.00
46139;DHT22;32398;49.112;8.598;2022-10-16T10:38:57;17.30;98.80
46139;DHT22;32398;49.112;8.598;2022-10-16T10:44:07;17.50;98.50
46139;DHT22;32398;49.112;8.598;2022-10-16T10:46:41;17.60;98.30
46139;DHT22;32398;49.112;8.598;2022-10-16T10:49:27;17.70;98.10
46139;DHT22;32398;49.112;8.598;2022-10-16T10:51:58;17.80;98.00
46139;DHT22;32398;49.112;8.598;2022-10-16T10:54:29;17.90;97.70
46139;DHT22;32398;49.112;8.598;2022-10-16T10:57:00;17.90;97.50
46139;DHT22;32398;49.112;8.598;2022-10-16T10:59:32;18.00;97.30
46139;DHT22;32398;49.112;8.598;2022-10-16T11:02:04;18.10;97.20
46139;DHT22;32398;49.112;8.598;2022-10-16T11:07:20;18.30;96.90
46139;DHT22;32398;49.112;8.598;2022-10-16T11:09:47;18.40;96.70
46139;DHT22;32398;49.112;8.598;2022-10-16T11:12:16;18.40;96.50
46139;DHT22;32398;49.112;8.598;2022-10-16T11:14:46;18.50;96.40
46139;DHT22;32398;49.112;8.598;2022-10-16T11:17:16;18.60;95.60
46139;DHT22;32398;49.112;8.598;2022-10-16T11:19:46;18.60;95.70
46139;DHT22;32398;49.112;8.598;2022-10-16T11:22:17;18.70;95.90
46139;DHT22;32398;49.112;8.598;2022-10-16T11:24:46;18.70;95.90
46139;DHT22;32398;49.112;8.598;2022-10-16T11:27:14;18.70;95.90
46139;DHT22;32398;49.112;8.598;2022-10-16T11:29:45;18.70;95.90
46139;DHT22;32398;49.112;8.598;2022-10-16T11:32:18;18.70;95.80
46139;DHT22;32398;49.112;8.598;2022-10-16T11:34:47;18.70;95.80
46139;DHT22;32398;49.112;8.598;2022-10-16T11:37:17;18.70;96.00
46139;DHT22;32398;49.112;8.598;2022-10-16T11:39:46;18.60;96.00
46139;DHT22;32398;49.112;8.598;2022-10-16T11:42:13;18.70;96.00
46139;DHT22;32398;49.112;8.598;2022-10-16T11:44:44;18.70;96.10
46139;DHT22;32398;49.112;8.598;2022-10-16T11:47:26;18.70;96.20
46139;DHT22;32398;49.112;8.598;2022-10-16T11:49:56;18.70;96.20
46139;DHT22;32398;49.112;8.598;2022-10-16T11:52:25;18.70;96.20
46139;DHT22;32398;49.112;8.598;2022-10-16T11:54:55;18.70;96.10
46139;DHT22;32398;49.112;8.598;2022-10-16T11:57:23;18.70;96.20
46139;DHT22;32398;49.112;8.598;2022-10-16T11:59:51;18.70;96.30
46139;DHT22;32398;49.112;8.598;2022-10-16T12:05:05;18.80;96.30
46139;DHT22;32398;49.112;8.598;2022-10-16T12:07:34;18.80;96.20
46139;DHT22;32398;49.112;8.598;2022-10-16T12:10:09;18.80;96.30
46139;DHT22;32398;49.112;8.598;2022-10-16T12:12:37;18.80;96.30
46139;DHT22;32398;49.112;8.598;2022-10-16T12:15:17;18.80;96.30
46139;DHT22;32398;49.112;8.598;2022-10-16T12:17:45;18.90;96.30
46139;DHT22;32398;49.112;8.598;2022-10-16T12:22:59;18.90;96.20
46139;DHT22;32398;49.112;8.598;2022-10-16T12:25:27;19.00;96.40
46139;DHT22;32398;49.112;8.598;2022-10-16T12:27:59;19.00;96.30
46139;DHT22;32398;49.112;8.598;2022-10-16T12:30:26;19.00;96.10
46139;DHT22;32398;49.112;8.598;2022-10-16T12:32:55;19.10;96.10
46139;DHT22;32398;49.112;8.598;2022-10-16T12:35:22;19.10;96.00
46139;DHT22;32398;49.112;8.598;2022-10-16T12:37:50;19.10;96.00
46139;DHT22;32398;49.112;8.598;2022-10-16T12:40:25;19.10;96.00
46139;DHT22;32398;49.112;8.598;2022-10-16T12:42:52;19.10;95.90
46139;DHT22;32398;49.112;8.598;2022-10-16T12:45:26;19.20;95.90
46139;DHT22;32398;49.112;8.598;2022-10-16T12:47:53;19.20;95.80
46139;DHT22;32398;49.112;8.598;2022-10-16T12:50:27;19.30;95.80
46139;DHT22;32398;49.112;8.598;2022-10-16T12:52:56;19.30;95.70
46139;DHT22;32398;49.112;8.598;2022-10-16T12:55:22;19.40;95.50
46139;DHT22;32398;49.112;8.598;2022-10-16T13:00:38;19.50;95.20
46139;DHT22;32398;49.112;8.598;2022-10-16T13:03:25;19.60;94.40
46139;DHT22;32398;49.112;8.598;2022-10-16T13:05:57;19.60;94.50
46139;DHT22;32398;49.112;8.598;2022-10-16T13:08:37;19.70;94.70
46139;DHT22;32398;49.112;8.598;2022-10-16T13:11:08;19.70;94.70
46139;DHT22;32398;49.112;8.598;2022-10-16T13:13:41;19.70;94.70
46139;DHT22;32398;49.112;8.598;2022-10-16T13:16:16;19.70;94.70
46139;DHT22;32398;49.112;8.598;2022-10-16T13:18:48;19.70;94.80
46139;DHT22;32398;49.112;8.598;2022-10-16T13:21:18;19.70;94.90
46139;DHT22;32398;49.112;8.598;2022-10-16T13:23:49;19.70;94.90
46139;DHT22;32398;49.112;8.598;2022-10-16T13:26:22;19.70;95.20
46139;DHT22;32398;49.112;8.598;2022-10-16T13:28:51;19.60;94.90
46139;DHT22;32398;49.112;8.598;2022-10-16T13:31:20;19.60;95.00
46139;DHT22;32398;49.112;8.598;2022-10-16T13:33:48;19.70;95.10
46139;DHT22;32398;49.112;8.598;2022-10-16T13:36:18;19.60;95.10
46139;DHT22;32398;49.112;8.598;2022-10-16T13:38:45;19.60;95.20
46139;DHT22;32398;49.112;8.598;2022-10-16T13:41:13;19.60;95.20
46139;DHT22;32398;49.112;8.598;2022-10-16T13:43:41;19.60;95.20
46139;DHT22;32398;49.112;8.598;2022-10-16T13:46:11;19.60;95.30
46139;DHT22;32398;49.112;8.598;2022-10-16T13:48:40;19.60;95.30
46139;DHT22;32398;49.112;8.598;2022-10-16T13:51:11;19.60;95.40
46139;DHT22;32398;49.112;8.598;2022-10-16T13:53:38;19.60;95.40
46139;DHT22;32398;49.112;8.598;2022-10-16T13:56:06;19.60;95.40
46139;DHT22;32398;49.112;8.598;2022-10-16T13:58:34;19.60;95.40
46139;DHT22;32398;49.112;8.598;2022-10-16T14:01:02;19.60;95.50
46139;DHT22;32398;49.112;8.598;2022-10-16T14:03:30;19.60;95.50
46139;DHT22;32398;49.112;8.598;2022-10-16T14:06:00;19.60;95.50
46139;DHT22;32398;49.112;8.598;2022-10-16T14:08:27;19.60;95.50
46139;DHT22;32398;49.112;8.598;2022-10-16T14:10:55;19.60;95.50
46139;DHT22;32398;49.112;8.598;2022-10-16T14:13:24;19.60;95.50
46139;DHT22;32398;49.112;8.598;2022-10-16T14:15:52;19.60;95.60
46139;DHT22;32398;49.112;8.598;2022-10-16T14:18:21;19.60;95.60
46139;DHT22;32398;49.112;8.598;2022-10-16T14:20:48;19.60;95.60
46139;DHT22;32398;49.112;8.598;2022-10-16T14:23:21;19.60;95.60
46139;DHT22;32398;49.112;8.598;2022-10-16T14:25:48;19.60;95.60
46139;DHT22;32398;49.112;8.598;2022-10-16T14:28:15;19.60;95.60
46139;DHT22;32398;49.112;8.598;2022-10-16T14:30:49;19.60;95.70
46139;DHT22;32398;49.112;8.598;2022-10-16T14:33:21;19.60;95.60
46139;DHT22;32398;49.112;8.598;2022-10-16T14:35:57;19.60;95.60
46139;DHT22;32398;49.112;8.598;2022-10-16T14:38:25;19.60;95.70
46139;DHT22;32398;49.112;8.598;2022-10-16T14:40:52;19.60;95.70
46139;DHT22;32398;49.112;8.598;2022-10-16T14:43:20;19.60;95.70
46139;DHT22;32398;49.112;8.598;2022-10-16T14:45:50;19.60;95.70
46139;DHT22;32398;49.112;8.598;2022-10-16T14:48:17;19.60;95.70
46139;DHT22;32398;49.112;8.598;2022-10-16T14:50:45;19.60;95.80
46139;DHT22;32398;49.112;8.598;2022-10-16T14:53:11;19.60;95.80
46139;DHT22;32398;49.112;8.598;2022-10-16T14:55:39;19.60;95.80
46139;DHT22;32398;49.112;8.598;2022-10-16T14:58:08;19.60;95.90
46139;DHT22;32398;49.112;8.598;2022-10-16T15:00:36;19.60;95.90
46139;DHT22;32398;49.112;8.598;2022-10-16T15:03:03;19.60;95.80
46139;DHT22;32398;49.112;8.598;2022-10-16T15:05:29;19.60;95.80
46139;DHT22;32398;49.112;8.598;2022-10-16T15:07:57;19.60;95.80
46139;DHT22;32398;49.112;8.598;2022-10-16T15:10:24;19.60;95.80
46139;DHT22;32398;49.112;8.598;2022-10-16T15:12:53;19.60;95.80
46139;DHT22;32398;49.112;8.598;2022-10-16T15:15:33;19.60;95.80
46139;DHT22;32398;49.112;8.598;2022-10-16T15:18:00;19.60;95.80
46139;DHT22;32398;49.112;8.598;2022-10-16T15:20:28;19.60;95.80
46139;DHT22;32398;49.112;8.598;2022-10-16T15:22:55;19.60;95.70
46139;DHT22;32398;49.112;8.598;2022-10-16T15:25:32;19.60;95.70
46139;DHT22;32398;49.112;8.598;2022-10-16T15:28:01;19.70;95.70
46139;DHT22;32398;49.112;8.598;2022-10-16T15:30:29;19.60;95.70
46139;DHT22;32398;49.112;8.598;2022-10-16T15:32:55;19.60;95.70
46139;DHT22;32398;49.112;8.598;2022-10-16T15:35:22;19.60;95.70
46139;DHT22;32398;49.112;8.598;2022-10-16T15:37:48;19.60;95.70
46139;DHT22;32398;49.112;8.598;2022-10-16T15:40:15;19.60;96.10
46139;DHT22;32398;49.112;8.598;2022-10-16T15:42:42;19.60;95.80
46139;DHT22;32398;49.112;8.598;2022-10-16T15:45:10;19.60;95.80
46139;DHT22;32398;49.112;8.598;2022-10-16T15:47:37;19.60;95.80
46139;DHT22;32398;49.112;8.598;2022-10-16T15:50:04;19.60;95.80
46139;DHT22;32398;49.112;8.598;2022-10-16T15:52:31;19.60;95.80
46139;DHT22;32398;49.112;8.598;2022-10-16T15:54:58;19.60;95.90